createdAt,value
2018-12-14T00:01:55.006Z,18.40
2018-12-14T00:07:04.391Z,18.18
2018-12-14T00:12:13.536Z,18.08
2018-12-14T00:17:22.970Z,21.94
2018-12-14T00:22:32.053Z,18.54
2018-12-14T00:27:41.455Z,18.70
2018-12-14T00:32:50.520Z,19.32
2018-12-14T00:37:59.831Z,24.26
2018-12-14T00:43:08.901Z,23.62
2018-12-14T00:48:18.214Z,20.49
2018-12-14T00:53:27.381Z,24.62
2018-12-14T00:58:36.832Z,21.05
2018-12-14T01:03:45.953Z,26.10
2018-12-14T01:08:55.245Z,22.10
2018-12-14T01:14:04.439Z,21.81
2018-12-14T01:19:13.858Z,22.62
2018-12-14T01:24:23.046Z,22.55
2018-12-14T01:29:32.333Z,23.49
2018-12-14T01:34:41.424Z,23.25
2018-12-14T01:39:50.753Z,26.69
2018-12-14T01:44:59.848Z,27.48
2018-12-14T01:50:09.278Z,21.87
2018-12-14T01:55:18.445Z,27.59
2018-12-14T02:00:27.955Z,22.54
2018-12-14T02:05:37.032Z,21.20
2018-12-14T02:10:46.329Z,27.53
2018-12-14T02:15:55.442Z,22.78
2018-12-14T02:21:04.826Z,21.94
2018-12-14T02:26:14.036Z,22.85
2018-12-14T02:31:23.504Z,28.78
2018-12-14T02:36:32.513Z,27.81
2018-12-14T02:41:41.862Z,22.44
2018-12-14T02:46:51.038Z,27.85
2018-12-14T02:52:00.437Z,27.92
2018-12-14T02:57:09.544Z,22.86
2018-12-14T03:02:18.861Z,27.88
2018-12-14T03:07:28.029Z,22.41
2018-12-14T03:12:37.366Z,28.06
2018-12-14T03:17:46.460Z,22.58
2018-12-14T03:22:55.728Z,23.17
2018-12-14T03:28:04.802Z,22.22
2018-12-14T03:33:14.202Z,23.49
2018-12-14T03:38:23.296Z,28.37
2018-12-14T03:43:32.644Z,22.48
2018-12-14T03:48:41.752Z,20.92
2018-12-14T03:53:51.187Z,21.80
2018-12-14T03:59:00.310Z,24.32
2018-12-14T04:04:09.654Z,24.31
2018-12-14T04:09:18.867Z,20.34
2018-12-14T04:14:28.294Z,19.51
2018-12-14T04:19:37.395Z,23.84
2018-12-14T04:24:46.716Z,19.61
2018-12-14T04:29:56.002Z,19.46
2018-12-14T04:35:05.173Z,23.36
2018-12-14T04:40:14.288Z,19.48
2018-12-14T04:45:23.625Z,18.96
2018-12-14T04:50:32.733Z,19.21
2018-12-14T04:55:42.074Z,23.21
2018-12-14T05:00:51.253Z,22.76
2018-12-14T05:06:00.626Z,19.31
2018-12-14T05:11:09.714Z,18.93
2018-12-14T05:16:19.057Z,19.21
2018-12-14T05:21:28.206Z,19.18
2018-12-14T05:26:37.548Z,19.01
2018-12-14T05:31:46.799Z,19.38
2018-12-14T05:36:56.041Z,23.72
2018-12-14T05:42:05.149Z,18.89
2018-12-14T05:47:14.447Z,19.73
2018-12-14T05:52:23.541Z,19.87
2018-12-14T05:57:32.892Z,19.48
2018-12-14T06:02:42.012Z,20.31
2018-12-14T06:07:51.328Z,23.43
2018-12-14T06:13:00.444Z,20.27
2018-12-14T06:18:09.705Z,20.03
2018-12-14T06:23:18.812Z,23.90
2018-12-14T06:28:28.162Z,23.71
2018-12-14T06:33:37.278Z,20.68
2018-12-14T06:38:46.624Z,20.74
2018-12-14T06:43:55.697Z,25.31
2018-12-14T06:49:05.136Z,20.05
2018-12-14T06:54:14.230Z,21.16
2018-12-14T06:59:23.608Z,25.56
2018-12-14T07:04:32.733Z,20.36
2018-12-14T07:09:42.069Z,25.07
2018-12-14T07:14:51.254Z,24.95
2018-12-14T07:20:00.606Z,20.93
2018-12-14T07:25:09.708Z,20.76
2018-12-14T07:30:19.023Z,20.87
2018-12-14T07:35:30.645Z,20.81
2018-12-14T07:40:29.919Z,21.77
2018-12-14T07:45:39.047Z,20.97
2018-12-14T07:50:48.964Z,24.85
2018-12-14T07:55:58.060Z,21.26
2018-12-14T08:01:07.398Z,26.25
2018-12-14T08:06:16.528Z,21.51
2018-12-14T08:11:25.794Z,21.25
2018-12-14T08:16:34.961Z,21.90
2018-12-14T08:21:44.542Z,26.33
2018-12-14T08:26:53.701Z,25.60
2018-12-14T08:32:03.109Z,21.43
2018-12-14T08:37:12.295Z,20.55
2018-12-14T08:42:21.853Z,19.91
2018-12-14T08:47:30.987Z,20.32
2018-12-14T08:52:41.040Z,21.25
2018-12-14T08:57:49.834Z,22.13
2018-12-14T09:02:59.273Z,20.90
2018-12-14T09:08:08.344Z,20.47
2018-12-14T09:13:17.635Z,20.38
2018-12-14T09:18:26.730Z,19.94
2018-12-14T09:23:36.029Z,20.01
2018-12-14T09:28:45.114Z,19.88
2018-12-14T09:33:54.420Z,19.75
2018-12-14T09:39:03.525Z,19.14
2018-12-14T09:44:12.896Z,19.31
2018-12-14T09:49:22.146Z,19.27
2018-12-14T09:54:31.501Z,22.22
2018-12-14T09:59:40.564Z,18.26
2018-12-14T10:04:49.888Z,22.56
2018-12-14T10:09:58.988Z,16.96
2018-12-14T10:15:08.333Z,16.76
2018-12-14T10:20:17.546Z,19.91
2018-12-14T10:25:26.909Z,17.54
2018-12-14T10:30:36.125Z,16.71
2018-12-14T10:35:45.626Z,15.84
2018-12-14T10:40:54.771Z,16.24
2018-12-14T10:46:04.109Z,18.31
2018-12-14T10:51:13.224Z,16.84
2018-12-14T10:56:22.505Z,17.10
2018-12-14T11:01:31.614Z,15.76
2018-12-14T11:06:40.888Z,16.11
2018-12-14T11:11:49.957Z,15.60
2018-12-14T11:16:59.327Z,18.58
2018-12-14T11:22:08.501Z,17.50
2018-12-14T11:27:17.907Z,28.40
2018-12-14T11:32:27.022Z,16.49
2018-12-14T11:37:36.473Z,16.07
2018-12-14T11:42:45.622Z,15.84
2018-12-14T11:47:54.897Z,15.84
2018-12-14T11:53:04.002Z,16.17
2018-12-14T11:58:13.407Z,16.71
2018-12-14T12:03:22.694Z,15.85
2018-12-14T12:08:32.224Z,18.61
2018-12-14T12:13:41.344Z,18.53
2018-12-14T12:18:47.596Z,21.86
2018-12-14T12:23:56.783Z,15.99
2018-12-14T12:29:05.946Z,16.47
2018-12-14T12:34:15.068Z,16.57
2018-12-14T12:39:24.344Z,16.25
2018-12-14T12:44:33.862Z,17.33
2018-12-14T12:49:42.475Z,16.11
2018-12-14T12:54:51.553Z,21.82
2018-12-14T13:00:01.028Z,16.55
2018-12-14T13:05:10.301Z,15.87
2018-12-14T13:10:19.765Z,15.48
2018-12-14T13:15:28.873Z,18.05
2018-12-14T13:20:38.158Z,16.05
2018-12-14T13:25:47.227Z,17.96
2018-12-14T13:30:56.565Z,16.15
2018-12-14T13:36:05.691Z,16.76
2018-12-14T13:41:15.028Z,16.23
2018-12-14T13:46:24.129Z,16.64
2018-12-14T13:51:33.465Z,15.98
2018-12-14T13:56:42.610Z,15.18
2018-12-14T14:01:51.913Z,17.62
2018-12-14T14:07:01.013Z,15.13
2018-12-14T14:12:10.516Z,16.50
2018-12-14T14:17:19.693Z,15.42
2018-12-14T14:22:28.997Z,15.18
2018-12-14T14:27:38.158Z,16.91
2018-12-14T14:32:47.478Z,15.68
2018-12-14T14:37:57.633Z,16.05
2018-12-14T14:43:05.529Z,16.44
2018-12-14T14:48:14.667Z,15.81
2018-12-14T14:58:31.442Z,16.51
2018-12-14T15:03:40.599Z,16.32
2018-12-14T15:08:49.998Z,16.21
2018-12-14T15:13:59.095Z,17.53
2018-12-14T15:19:08.469Z,17.87
2018-12-14T15:24:17.071Z,16.48
2018-12-14T15:29:25.968Z,18.39
2018-12-14T15:34:34.541Z,17.22
2018-12-14T15:39:43.425Z,18.50
2018-12-14T15:44:51.937Z,17.93
2018-12-14T15:50:00.836Z,20.87
2018-12-14T15:55:09.454Z,21.16
2018-12-14T16:00:18.257Z,18.99
2018-12-14T16:05:26.813Z,18.83
2018-12-14T16:10:35.668Z,18.30
2018-12-14T16:15:44.301Z,19.35
2018-12-14T16:20:53.159Z,18.09
2018-12-14T16:26:01.679Z,18.37
2018-12-14T16:31:10.436Z,30.48
2018-12-14T16:36:18.987Z,19.10
2018-12-14T16:41:27.741Z,19.10
2018-12-14T16:46:36.527Z,18.98
2018-12-14T16:51:45.266Z,19.02
2018-12-14T16:56:53.856Z,19.08
2018-12-14T17:02:02.608Z,19.00
2018-12-14T17:07:11.153Z,18.90
2018-12-14T17:12:19.928Z,20.13
2018-12-14T17:17:28.745Z,20.62
2018-12-14T17:22:37.509Z,20.04
2018-12-14T17:27:46.048Z,20.50
2018-12-14T17:32:54.844Z,20.86
2018-12-14T17:38:03.376Z,21.47
2018-12-14T17:43:12.126Z,21.33
2018-12-14T17:48:20.644Z,21.11
2018-12-14T17:53:29.461Z,20.77
2018-12-14T17:58:38.041Z,21.13
2018-12-14T18:03:46.799Z,21.78
2018-12-14T18:08:55.348Z,22.44
2018-12-14T18:14:03.942Z,24.73
2018-12-14T18:19:12.538Z,24.49
2018-12-14T18:24:21.262Z,24.59
2018-12-14T18:29:29.825Z,27.28
2018-12-14T18:34:38.717Z,25.07
2018-12-14T18:39:47.336Z,23.45
2018-12-14T18:44:56.129Z,23.05
2018-12-14T18:50:05.136Z,22.09
2018-12-14T18:55:13.885Z,24.47
2018-12-14T19:00:22.460Z,22.35
2018-12-14T19:05:31.208Z,23.12
2018-12-14T19:10:39.700Z,22.42
2018-12-14T19:15:48.588Z,26.34
2018-12-14T19:20:57.143Z,23.14
2018-12-14T19:26:08.911Z,22.92
2018-12-14T19:31:06.770Z,22.37
2018-12-14T19:36:15.468Z,22.14
2018-12-14T19:41:24.026Z,21.37
2018-12-14T19:46:32.814Z,24.44
2018-12-14T19:51:41.424Z,22.02
2018-12-14T19:56:50.176Z,24.30
2018-12-14T20:01:58.725Z,24.96
2018-12-14T20:07:07.569Z,25.04
2018-12-14T20:12:16.139Z,22.94
2018-12-14T20:17:24.855Z,24.86
2018-12-14T20:22:33.413Z,20.41
2018-12-14T20:27:42.308Z,21.05
2018-12-14T20:32:50.805Z,21.30
2018-12-14T20:37:59.584Z,22.77
2018-12-14T20:43:08.107Z,20.50
2018-12-14T20:48:16.955Z,20.66
2018-12-14T20:53:25.490Z,24.94
2018-12-14T20:58:34.214Z,21.05
2018-12-14T21:03:42.736Z,20.73
2018-12-14T21:08:51.597Z,22.62
2018-12-14T21:14:00.237Z,19.70
2018-12-14T21:19:09.026Z,18.96
2018-12-14T21:24:17.576Z,19.54
2018-12-14T21:29:26.331Z,22.98
2018-12-14T21:34:34.854Z,18.83
2018-12-14T21:39:43.621Z,18.85
2018-12-14T21:44:52.143Z,19.38
2018-12-14T21:50:01.029Z,21.75
2018-12-14T21:55:09.576Z,19.51
2018-12-14T22:00:18.373Z,17.73
2018-12-14T22:05:26.981Z,18.22
2018-12-14T22:10:35.765Z,17.26
2018-12-14T22:15:44.289Z,18.46
2018-12-14T22:20:53.020Z,18.28
2018-12-14T22:26:01.603Z,21.27
2018-12-14T22:31:10.365Z,19.71
2018-12-14T22:36:18.885Z,18.36
2018-12-14T22:41:27.700Z,17.71
2018-12-14T22:46:36.319Z,17.61
2018-12-14T22:51:45.125Z,17.26
2018-12-14T22:56:53.710Z,17.64
2018-12-14T23:02:02.538Z,18.98
2018-12-14T23:07:11.098Z,18.84
2018-12-14T23:12:19.808Z,18.95
2018-12-14T23:17:28.388Z,18.67
2018-12-14T23:22:37.164Z,17.40
2018-12-14T23:27:45.733Z,19.41
2018-12-14T23:32:54.471Z,21.49
2018-12-14T23:38:03.021Z,19.31
2018-12-14T23:43:12.028Z,19.34
2018-12-14T23:48:20.610Z,21.92
2018-12-14T23:53:29.406Z,18.85
2018-12-14T23:58:37.929Z,18.45
